Time;durP1;ratioP1;P1;durP2;ratioP2;P2;SDS_P1;SDS_P2;PMS_P1;PMS_P2;Temp;Humidity;BMP_temperature;BMP_pressure;BME280_temperature;BME280_humidity;BME280_pressure;Samples;Min_cycle;Max_cycle;Signal;HPM_P1;HPM_P2
2022/01/22 00:00:33;;;;;;;10.07;5.95;;;;;;;3.59;75.49;101405.38;1085913;54;20102;-77
2022/01/22 00:01:34;;;;;;;11.68;6.65;;;;;;;3.54;75.88;101400.28;1085889;54;20053;-78
2022/01/22 00:02:39;;;;;;;10.85;6.57;;;;;;;3.52;75.87;101403.91;1085624;54;20114;-76
2022/01/22 00:03:43;;;;;;;11.40;6.53;;;;;;;3.57;75.32;101416.03;1085245;54;20576;-77
2022/01/22 00:04:47;;;;;;;13.93;7.53;;;;;;;3.50;75.78;101409.25;1085467;54;20045;-76
2022/01/22 00:05:49;;;;;;;12.82;7.15;;;;;;;3.51;75.49;101408.34;1085611;54;20063;-78
2022/01/22 00:06:55;;;;;;;13.25;6.95;;;;;;;3.55;75.57;101403.75;1085341;54;20035;-78
2022/01/22 00:07:57;;;;;;;13.70;8.00;;;;;;;3.41;75.90;101407.00;1085570;54;20046;-77
2022/01/22 00:09:01;;;;;;;14.27;7.53;;;;;;;3.45;75.82;101411.25;1085776;54;20038;-78
2022/01/22 00:10:06;;;;;;;14.85;7.32;;;;;;;3.57;75.54;101402.81;1085594;54;20039;-78
2022/01/22 00:11:11;;;;;;;10.98;6.55;;;;;;;3.63;75.30;101406.97;1085741;54;20062;-79
2022/01/22 00:12:23;;;;;;;12.45;7.45;;;;;;;3.70;75.07;101402.25;1085604;54;20046;-78
2022/01/22 00:14:44;;;;;;;13.05;7.72;;;;;;;3.61;75.23;101402.66;1085950;54;20053;-78
2022/01/22 00:15:48;;;;;;;12.73;7.35;;;;;;;3.53;75.44;101401.19;1086017;54;20034;-77
2022/01/22 00:16:53;;;;;;;14.43;7.35;;;;;;;3.65;75.31;101404.25;1085788;54;20066;-75
2022/01/22 00:18:01;;;;;;;16.05;7.22;;;;;;;3.56;75.20;101402.84;1086580;39;20492;-79
2022/01/22 00:19:09;;;;;;;14.50;7.75;;;;;;;3.41;75.72;101399.06;1086506;54;20039;-76
2022/01/22 00:20:13;;;;;;;12.52;7.57;;;;;;;3.45;75.59;101398.03;1087110;54;20045;-77
2022/01/22 00:21:20;;;;;;;18.00;7.78;;;;;;;3.42;75.99;101392.88;1087016;54;20094;-77
2022/01/22 00:22:26;;;;;;;13.52;7.53;;;;;;;3.50;75.74;101393.38;1086091;39;20461;-79
2022/01/22 00:23:30;;;;;;;14.90;8.02;;;;;;;3.39;75.69;101395.66;1087304;46;20049;-77
2022/01/22 00:24:37;;;;;;;14.02;7.85;;;;;;;3.31;76.04;101395.13;1085801;54;20131;-78
2022/01/22 00:25:42;;;;;;;15.48;8.40;;;;;;;3.42;75.97;101392.88;1085786;54;20647;-76
2022/01/22 00:26:44;;;;;;;18.83;7.57;;;;;;;3.54;75.82;101394.16;1085686;54;20075;-77
2022/01/22 00:27:51;;;;;;;13.70;7.82;;;;;;;3.50;75.74;101390.75;1085638;54;20062;-77
2022/01/22 00:28:52;;;;;;;13.40;7.80;;;;;;;3.63;75.32;101390.22;1085648;54;20030;-75
2022/01/22 00:29:57;;;;;;;10.82;6.60;;;;;;;3.68;74.94;101388.25;1085951;54;20042;-76
2022/01/22 00:30:59;;;;;;;16.42;7.85;;;;;;;3.56;75.05;101381.69;1085807;54;20071;-76
2022/01/22 00:32:03;;;;;;;13.68;7.10;;;;;;;3.56;75.38;101382.56;1086311;46;20034;-77
2022/01/22 00:33:04;;;;;;;14.55;8.35;;;;;;;3.53;75.73;101379.19;1085755;39;20685;-78
2022/01/22 00:34:12;;;;;;;17.02;8.82;;;;;;;3.35;76.09;101386.13;1086052;54;20130;-76
2022/01/22 00:35:14;;;;;;;14.65;8.50;;;;;;;3.26;76.11;101390.88;1085657;54;20042;-76
2022/01/22 00:36:18;;;;;;;13.75;8.13;;;;;;;3.27;76.42;101389.97;1086694;54;20061;-75
2022/01/22 00:37:20;;;;;;;15.82;8.30;;;;;;;3.33;75.86;101380.91;1087365;54;20030;-75
2022/01/22 00:38:24;;;;;;;16.45;9.07;;;;;;;3.44;75.81;101383.09;1088036;46;20034;-76
2022/01/22 00:39:25;;;;;;;14.07;7.70;;;;;;;3.46;75.54;101378.59;1087189;54;20043;-75
2022/01/22 00:40:29;;;;;;;12.15;7.72;;;;;;;3.56;75.54;101379.94;1087838;39;20491;-76
2022/01/22 00:41:31;;;;;;;11.30;6.85;;;;;;;3.48;75.61;101376.75;1087407;54;20059;-75
2022/01/22 00:42:35;;;;;;;13.35;7.88;;;;;;;3.47;75.44;101382.97;1087998;39;20323;-75
2022/01/22 00:43:37;;;;;;;11.38;6.95;;;;;;;3.55;75.50;101378.19;1087135;46;20038;-76
2022/01/22 00:44:42;;;;;;;11.88;7.18;;;;;;;3.63;75.22;101374.34;1085597;54;20042;-77
2022/01/22 00:45:43;;;;;;;15.60;7.50;;;;;;;3.64;75.05;101376.91;1085388;54;20050;-76
2022/01/22 00:46:48;;;;;;;12.52;6.88;;;;;;;3.66;74.92;101372.44;1085825;54;20039;-78
2022/01/22 00:47:50;;;;;;;11.25;6.57;;;;;;;3.72;74.88;101381.88;1086020;39;20279;-76
2022/01/22 00:48:54;;;;;;;10.80;6.22;;;;;;;3.77;74.66;101376.38;1085490;54;20043;-76
2022/01/22 00:49:58;;;;;;;11.70;6.60;;;;;;;3.73;74.55;101387.09;1085625;54;20046;-76
2022/01/22 00:51:03;;;;;;;12.52;7.15;;;;;;;3.56;75.10;101381.69;1085693;54;20038;-76
2022/01/22 00:52:05;;;;;;;11.93;7.68;;;;;;;3.57;75.33;101386.94;1085149;54;20038;-77
2022/01/22 00:53:10;;;;;;;15.60;7.22;;;;;;;3.56;75.14;101379.94;1085518;54;20050;-78
2022/01/22 00:54:14;;;;;;;12.88;7.63;;;;;;;3.64;75.26;101386.66;1085823;54;20046;-76
2022/01/22 00:55:16;;;;;;;12.95;7.40;;;;;;;3.70;74.76;101383.72;1085245;54;20674;-76
2022/01/22 00:56:21;;;;;;;12.63;7.53;;;;;;;3.63;75.07;101387.56;1085598;54;20034;-76
2022/01/22 00:57:22;;;;;;;13.15;6.88;;;;;;;3.63;74.81;101384.94;1085379;54;20172;-77
2022/01/22 00:58:26;;;;;;;13.57;7.43;;;;;;;3.57;75.09;101386.94;1085297;54;20053;-76
2022/01/22 00:59:28;;;;;;;15.45;7.57;;;;;;;3.66;74.78;101388.28;1085562;54;20611;-78
2022/01/22 01:00:32;;;;;;;14.38;7.53;;;;;;;3.69;74.96;101389.94;1085953;54;20038;-76
2022/01/22 01:01:34;;;;;;;11.95;6.88;;;;;;;3.70;74.82;101391.66;1085572;54;20573;-75
2022/01/22 01:02:38;;;;;;;12.90;7.78;;;;;;;3.54;74.89;101397.63;1085755;54;20350;-77
2022/01/22 01:03:42;;;;;;;16.98;8.95;;;;;;;3.40;75.57;101392.09;1086049;54;20042;-76
2022/01/22 01:04:44;;;;;;;13.27;7.43;;;;;;;3.44;75.66;101393.66;1085494;54;20050;-77
2022/01/22 01:05:51;;;;;;;14.18;7.72;;;;;;;3.38;75.79;101386.00;1085539;54;20530;-75
2022/01/22 01:06:52;;;;;;;16.92;8.48;;;;;;;3.28;76.16;101386.41;1085887;54;20057;-76
2022/01/22 01:07:56;;;;;;;14.50;8.32;;;;;;;3.28;76.19;101394.31;1085546;54;20038;-76
2022/01/22 01:09:00;;;;;;;14.30;7.45;;;;;;;3.45;75.78;101382.16;1085880;54;20051;-77
2022/01/22 01:10:04;;;;;;;14.57;8.52;;;;;;;3.39;75.85;101385.09;1085689;54;20049;-76
2022/01/22 01:11:07;;;;;;;13.05;7.35;;;;;;;3.40;75.91;101379.72;1085575;54;20042;-76
2022/01/22 01:12:13;;;;;;;16.23;8.00;;;;;;;3.49;75.55;101378.47;1085534;54;20049;-78
2022/01/22 01:13:15;;;;;;;12.65;7.03;;;;;;;3.55;75.47;101378.19;1085827;47;20170;-77
2022/01/22 01:14:26;;;;;;;13.18;6.68;;;;;;;3.54;75.31;101373.84;1085531;54;20038;-76
2022/01/22 01:15:38;;;;;;;13.48;7.07;;;;;;;3.55;75.01;101372.03;1086499;54;20046;-75
2022/01/22 01:17:07;;;;;;;13.07;7.68;;;;;;;3.52;75.39;101380.13;1087379;54;20061;-75
2022/01/22 01:32:31;;;;;;;17.23;7.60;;;;;;;3.40;75.53;101386.81;1086033;54;20038;-76
2022/01/22 01:33:41;;;;;;;14.63;8.27;;;;;;;3.19;76.11;101394.72;1085874;54;20071;-76
2022/01/22 01:34:47;;;;;;;13.43;7.95;;;;;;;3.33;75.89;101391.50;1086296;54;20045;-77
2022/01/22 01:35:48;;;;;;;18.23;8.50;;;;;;;3.48;75.69;101389.97;1086405;54;20167;-78
2022/01/22 01:36:53;;;;;;;13.68;7.70;;;;;;;3.57;75.23;101388.69;1087267;39;20514;-75
2022/01/22 01:38:00;;;;;;;14.90;7.03;;;;;;;3.51;75.29;101384.53;1085960;54;20039;-76
2022/01/22 01:39:07;;;;;;;14.38;7.28;;;;;;;3.64;75.08;101384.00;1086063;54;20038;-76
2022/01/22 01:40:12;;;;;;;13.88;6.97;;;;;;;3.59;75.09;101379.75;1086188;54;20082;-76
2022/01/22 01:41:24;;;;;;;15.50;7.97;;;;;;;3.26;75.87;101398.81;1088667;31;20646;-76
2022/01/22 01:42:33;;;;;;;16.15;8.77;;;;;;;3.19;76.46;101391.19;1086388;54;20059;-76
2022/01/22 01:43:40;;;;;;;15.45;8.70;;;;;;;3.17;76.61;101399.19;1086532;54;20034;-78
2022/01/22 01:44:41;;;;;;;15.52;8.88;;;;;;;3.31;76.30;101397.78;1086151;54;20041;-76
2022/01/22 01:45:45;;;;;;;20.85;8.98;;;;;;;3.19;76.59;101402.66;1086115;54;20039;-76
2022/01/22 01:46:50;;;;;;;16.35;8.23;;;;;;;3.28;76.27;101396.97;1085896;54;20050;-76
2022/01/22 01:47:57;;;;;;;14.13;8.07;;;;;;;3.33;76.36;101414.41;1086807;39;20462;-78
2022/01/22 01:48:59;;;;;;;16.60;8.25;;;;;;;3.47;76.02;101409.41;1085814;54;20065;-77
2022/01/22 01:50:03;;;;;;;14.85;8.15;;;;;;;3.46;75.73;101405.03;1085900;54;20067;-76
2022/01/22 01:51:05;;;;;;;11.13;7.10;;;;;;;3.49;75.54;101399.63;1086098;54;20042;-78
2022/01/22 01:52:15;;;;;;;15.57;8.27;;;;;;;3.53;75.49;101401.19;1086053;54;20065;-78
2022/01/22 01:53:29;;;;;;;13.48;7.90;;;;;;;3.47;75.54;101412.06;1086447;39;20264;-76
2022/01/22 01:54:45;;;;;;;16.98;8.55;;;;;;;3.33;75.99;101411.75;1085966;54;20038;-76
2022/01/22 01:56:03;;;;;;;18.30;8.77;;;;;;;3.22;76.39;101407.78;1085621;54;20047;-78
2022/01/22 01:58:24;;;;;;;14.88;8.32;;;;;;;3.26;76.57;101406.75;1085678;54;20034;-77
2022/01/22 01:59:26;;;;;;;16.35;9.00;;;;;;;3.27;76.39;101402.31;1086324;39;20453;-77
2022/01/22 02:00:30;;;;;;;15.98;8.80;;;;;;;3.23;76.67;101393.66;1085588;54;20098;-77
2022/01/22 02:01:33;;;;;;;15.10;8.13;;;;;;;3.38;76.12;101396.59;1085264;54;20049;-76
2022/01/22 02:02:38;;;;;;;13.30;8.10;;;;;;;3.19;76.67;101401.75;1085776;46;20038;-76
2022/01/22 02:03:39;;;;;;;16.70;9.43;;;;;;;3.16;76.90;101400.13;1085498;54;20049;-76
2022/01/22 02:04:44;;;;;;;14.63;8.85;;;;;;;3.25;76.62;101397.09;1085223;54;20045;-76
2022/01/22 02:05:45;;;;;;;16.00;9.73;;;;;;;3.15;77.03;101394.91;1085677;54;20038;-76
2022/01/22 02:06:50;;;;;;;15.32;8.90;;;;;;;3.21;76.94;101398.13;1085661;54;20090;-77
2022/01/22 02:07:54;;;;;;;15.20;8.35;;;;;;;3.22;76.81;101402.50;1085764;54;20597;-76
2022/01/22 02:09:01;;;;;;;13.98;7.88;;;;;;;3.27;76.66;101403.19;1085905;54;20038;-77
2022/01/22 02:10:03;;;;;;;14.32;8.30;;;;;;;3.31;76.50;101403.06;1085553;54;20620;-77
2022/01/22 02:11:09;;;;;;;15.68;7.28;;;;;;;3.38;76.04;101407.16;1086147;46;20131;-77
2022/01/22 02:12:16;;;;;;;15.48;8.20;;;;;;;3.25;76.47;101399.72;1086240;39;20527;-78
2022/01/22 02:23:43;;;;;;;15.05;9.00;;;;;;;3.28;76.56;101401.38;1086094;54;20086;-77
2022/01/22 02:24:44;;;;;;;14.45;8.55;;;;;;;3.45;75.95;101398.03;1086138;54;20587;-75
2022/01/22 02:25:54;;;;;;;15.05;7.68;;;;;;;3.51;75.95;101403.03;1085791;54;20112;-75
2022/01/22 02:26:56;;;;;;;14.23;8.35;;;;;;;3.32;76.39;101408.28;1086197;54;20038;-76
2022/01/22 02:28:03;;;;;;;14.57;8.27;;;;;;;3.33;76.35;101398.53;1086179;54;20026;-77
2022/01/22 02:29:07;;;;;;;15.77;7.82;;;;;;;3.41;76.41;101393.78;1087305;31;20608;-79
2022/01/22 02:30:09;;;;;;;19.63;9.40;;;;;;;3.38;76.27;101392.13;1085622;54;20045;-76
2022/01/22 02:31:20;;;;;;;16.67;9.27;;;;;;;3.23;76.73;101387.50;1085672;54;20045;-76
2022/01/22 02:33:51;;;;;;;14.90;7.93;;;;;;;3.33;76.36;101383.56;1085628;46;20087;-76
2022/01/22 02:34:59;;;;;;;16.13;8.88;;;;;;;3.35;76.37;101384.34;1085494;54;20069;-77
2022/01/22 02:36:19;;;;;;;14.32;8.18;;;;;;;3.23;76.69;101388.34;1085714;54;20114;-76
2022/01/22 02:37:24;;;;;;;14.93;8.65;;;;;;;3.24;76.77;101379.50;1086879;39;20422;-76
2022/01/22 02:38:35;;;;;;;15.68;8.63;;;;;;;3.17;76.92;101378.06;1085792;54;20062;-76
2022/01/22 02:39:43;;;;;;;14.50;9.00;;;;;;;3.28;76.93;101385.53;1086222;46;20050;-75
2022/01/22 02:40:47;;;;;;;15.30;8.70;;;;;;;3.13;77.07;101373.81;1085969;54;20038;-76
2022/01/22 02:41:52;;;;;;;16.38;9.07;;;;;;;3.27;76.80;101373.22;1085935;47;20068;-78
2022/01/22 02:42:53;;;;;;;14.73;8.43;;;;;;;3.32;76.60;101371.25;1086038;54;20034;-79
2022/01/22 02:43:58;;;;;;;15.35;8.20;;;;;;;3.41;76.30;101375.28;1085804;54;20046;-76
2022/01/22 02:45:00;;;;;;;16.05;8.80;;;;;;;3.39;76.22;101377.16;1085482;54;20034;-78
2022/01/22 02:46:05;;;;;;;14.20;8.40;;;;;;;3.43;76.26;101374.31;1085828;54;20102;-78
2022/01/22 02:47:07;;;;;;;13.98;7.78;;;;;;;3.45;76.25;101376.03;1085747;54;20049;-77
2022/01/22 02:48:13;;;;;;;12.13;7.30;;;;;;;3.52;75.78;101367.75;1085327;54;20034;-76
2022/01/22 02:49:14;;;;;;;14.07;7.53;;;;;;;3.47;76.09;101374.16;1085609;54;20593;-77
2022/01/22 02:50:20;;;;;;;13.52;8.15;;;;;;;3.50;75.82;101368.75;1085772;54;20066;-75
2022/01/22 02:51:28;;;;;;;13.93;8.85;;;;;;;3.44;75.82;101369.88;1085812;54;20065;-77
2022/01/22 02:52:29;;;;;;;12.95;7.38;;;;;;;3.52;75.98;101373.03;1085934;54;20042;-76
2022/01/22 02:53:33;;;;;;;11.48;7.32;;;;;;;3.50;76.00;101369.59;1085787;54;20653;-77
2022/01/22 02:54:36;;;;;;;13.73;8.45;;;;;;;3.42;76.18;101367.31;1085717;54;20042;-76
2022/01/22 02:55:40;;;;;;;15.25;8.05;;;;;;;3.44;75.90;101364.59;1085584;54;20038;-77
2022/01/22 02:56:42;;;;;;;13.55;8.10;;;;;;;3.38;76.53;101371.00;1088211;31;20521;-77
2022/01/22 02:57:47;;;;;;;14.68;8.52;;;;;;;3.34;76.27;101366.78;1085968;54;20046;-77
2022/01/22 02:58:50;;;;;;;16.45;9.05;;;;;;;3.51;75.92;101371.31;1085893;54;20046;-76
2022/01/22 02:59:55;;;;;;;13.25;8.25;;;;;;;3.39;76.00;101366.56;1085897;54;20039;-78
2022/01/22 03:00:56;;;;;;;11.93;8.35;;;;;;;3.43;76.26;101368.16;1085703;54;20042;-76
2022/01/22 03:02:03;;;;;;;12.88;8.32;;;;;;;3.39;75.89;101366.56;1085909;54;20109;-77
2022/01/22 03:03:06;;;;;;;15.02;8.90;;;;;;;3.33;76.46;101369.47;1085702;54;20059;-77
2022/01/22 03:04:11;;;;;;;15.38;8.48;;;;;;;3.43;75.93;101363.75;1085450;54;20045;-76
2022/01/22 03:05:13;;;;;;;12.57;7.50;;;;;;;3.58;75.57;101372.78;1085741;54;20569;-79
2022/01/22 03:06:17;;;;;;;12.32;7.30;;;;;;;3.64;75.76;101376.06;1086005;54;20039;-77
2022/01/22 03:07:21;;;;;;;12.73;8.25;;;;;;;3.52;75.71;101370.38;1085579;54;20038;-77
2022/01/22 03:08:28;;;;;;;15.88;8.43;;;;;;;3.58;75.50;101372.78;1086616;47;20038;-76
2022/01/22 03:09:32;;;;;;;12.82;6.97;;;;;;;3.74;75.20;101367.66;1085959;54;20063;-76
2022/01/22 03:10:37;;;;;;;9.77;7.22;;;;;;;3.79;74.91;101371.91;1085408;39;20498;-78
2022/01/22 03:12:00;;;;;;;12.00;7.50;;;;;;;3.86;74.97;101376.84;1085398;54;20103;-77
2022/01/22 03:13:24;;;;;;;14.85;8.27;;;;;;;3.70;74.99;101373.16;1086425;39;20621;-78
2022/01/22 03:15:12;;;;;;;13.13;7.32;;;;;;;3.79;74.81;101371.91;1085370;54;20038;-75
2022/01/22 03:16:12;;;;;;;13.45;8.10;;;;;;;3.78;74.73;101373.66;1085481;54;20066;-76
2022/01/22 03:17:31;;;;;;;13.95;7.65;;;;;;;3.73;74.74;101373.03;1086469;54;20042;-77
2022/01/22 03:18:49;;;;;;;15.18;8.05;;;;;;;3.44;75.37;101372.50;1086720;54;20065;-77
2022/01/22 03:20:05;;;;;;;15.02;8.32;;;;;;;3.66;75.26;101369.78;1086104;54;20699;-76
2022/01/22 03:21:26;;;;;;;12.90;8.23;;;;;;;3.73;74.84;101380.97;1085877;54;20027;-77
2022/01/22 03:22:52;;;;;;;11.38;7.25;;;;;;;3.79;74.83;101385.97;1086185;54;20059;-76
2022/01/22 03:27:45;;;;;;;10.75;7.35;;;;;;;3.56;75.51;101384.34;1086128;54;20050;-77
2022/01/22 03:28:57;;;;;;;12.45;7.43;;;;;;;3.55;75.59;101372.91;1086125;54;20030;-77
2022/01/22 03:30:02;;;;;;;13.30;7.45;;;;;;;3.72;74.85;101382.75;1085855;54;20031;-77
2022/01/22 03:31:03;;;;;;;13.90;8.15;;;;;;;3.65;75.00;101377.81;1085685;54;20071;-78
2022/01/22 03:32:10;;;;;;;13.27;7.93;;;;;;;3.74;74.95;101374.75;1085921;54;20038;-76
2022/01/22 03:33:14;;;;;;;14.35;8.32;;;;;;;3.56;75.11;101372.00;1085855;54;20094;-77
2022/01/22 03:34:18;;;;;;;13.95;8.20;;;;;;;3.50;75.37;101380.16;1085912;54;20106;-77
2022/01/22 03:35:26;;;;;;;16.10;8.55;;;;;;;3.59;75.35;101373.63;1085942;54;20043;-77
2022/01/22 03:36:33;;;;;;;15.20;8.27;;;;;;;3.57;75.46;101376.34;1089341;39;20732;-79
2022/01/22 03:37:39;;;;;;;13.73;7.82;;;;;;;3.52;75.71;101373.03;1086039;54;20050;-77
2022/01/22 03:38:43;;;;;;;11.48;7.78;;;;;;;3.56;75.63;101381.69;1086375;54;20050;-76
2022/01/22 03:39:47;;;;;;;15.30;8.20;;;;;;;3.65;75.28;101383.09;1086414;54;20046;-76
2022/01/22 03:40:50;;;;;;;13.75;7.15;;;;;;;3.81;74.68;101381.47;1089804;39;20639;-77
2022/01/22 03:41:54;;;;;;;13.98;7.82;;;;;;;3.87;74.42;101373.25;1086450;54;20039;-77
2022/01/22 03:42:56;;;;;;;9.80;6.22;;;;;;;3.90;74.44;101381.06;1086355;54;20101;-77
2022/01/22 03:44:09;;;;;;;16.60;7.90;;;;;;;3.69;74.57;101382.00;1086610;54;20107;-76
2022/01/22 03:45:12;;;;;;;12.85;7.88;;;;;;;3.70;74.99;101362.56;1086279;54;20042;-76
2022/01/22 03:46:16;;;;;;;11.60;7.78;;;;;;;3.56;75.44;101365.81;1085758;54;20432;-76
2022/01/22 03:47:17;;;;;;;15.30;8.98;;;;;;;3.62;75.39;101362.06;1085853;54;20038;-77
2022/01/22 03:48:22;;;;;;;15.32;8.15;;;;;;;3.55;75.67;101370.28;1086312;54;20038;-76
2022/01/22 03:49:23;;;;;;;15.57;8.88;;;;;;;3.49;75.81;101367.03;1086626;54;20042;-76
2022/01/22 03:50:28;;;;;;;13.38;7.68;;;;;;;3.69;75.31;101367.00;1085818;54;20040;-77
2022/01/22 03:51:30;;;;;;;14.95;9.07;;;;;;;3.58;75.38;101370.16;1087134;39;20666;-77
2022/01/22 03:52:34;;;;;;;15.80;9.25;;;;;;;3.56;75.34;101374.63;1086580;54;20034;-75
2022/01/22 03:53:38;;;;;;;12.90;8.73;;;;;;;3.73;75.23;101367.72;1087555;54;20049;-75
2022/01/22 03:54:43;;;;;;;12.45;7.60;;;;;;;3.60;75.15;101370.06;1088176;46;20031;-76
2022/01/22 03:55:54;;;;;;;12.48;8.20;;;;;;;3.46;75.72;101373.31;1086479;47;20042;-77
2022/01/22 03:56:58;;;;;;;15.93;8.77;;;;;;;3.57;75.30;101375.47;1086491;54;20041;-76
2022/01/22 03:58:01;;;;;;;13.13;7.82;;;;;;;3.65;75.14;101377.81;1086902;39;20422;-78
2022/01/22 03:59:05;;;;;;;12.70;8.20;;;;;;;3.74;75.17;101367.66;1086793;39;20653;-78
2022/01/22 04:00:09;;;;;;;13.95;8.00;;;;;;;3.66;74.97;101374.22;1086354;54;20071;-78
2022/01/22 04:03:09;;;;;;;13.75;8.30;;;;;;;3.55;75.19;101375.56;1085989;54;20035;-77
2022/01/22 04:04:13;;;;;;;14.88;8.55;;;;;;;3.53;75.59;101365.97;1086324;39;20712;-77
2022/01/22 04:05:18;;;;;;;14.23;8.45;;;;;;;3.67;75.33;101371.50;1086060;54;20038;-77
2022/01/22 04:09:11;;;;;;;10.13;6.90;;;;;;;3.89;74.31;101360.81;1084430;54;20041;-76
2022/01/22 04:10:14;;;;;;;11.35;6.95;;;;;;;3.90;74.28;101359.91;1084800;54;20067;-78
2022/01/22 04:11:18;;;;;;;12.82;7.50;;;;;;;3.91;74.28;101355.47;1084630;54;20044;-76
2022/01/22 04:12:28;;;;;;;13.52;8.85;;;;;;;3.75;74.43;101364.09;1087681;39;20572;-77
2022/01/22 04:13:34;;;;;;;13.77;8.27;;;;;;;3.67;75.07;101358.28;1084998;54;20043;-76
2022/01/22 04:14:44;;;;;;;12.73;8.40;;;;;;;3.85;74.58;101353.09;1085270;54;20034;-76
2022/01/22 04:15:49;;;;;;;11.65;8.43;;;;;;;3.94;74.12;101352.66;1085434;54;20065;-77
2022/01/22 04:17:03;;;;;;;13.77;8.07;;;;;;;3.97;74.13;101351.69;1085604;54;20086;-78
2022/01/22 04:26:15;;;;;;;14.30;9.40;;;;;;;3.74;75.14;101350.94;1085010;54;20557;-78
2022/01/22 04:27:22;;;;;;;15.15;9.43;;;;;;;3.76;74.89;101359.66;1085187;54;20041;-78
2022/01/22 04:28:27;;;;;;;15.60;9.85;;;;;;;3.55;75.01;101358.81;1085059;54;20719;-77
2022/01/22 04:29:31;;;;;;;14.82;10.15;;;;;;;3.68;75.09;101348.56;1085104;54;20288;-77
2022/01/22 04:30:33;;;;;;;15.38;10.45;;;;;;;3.74;75.08;101356.22;1085164;54;20101;-77
2022/01/22 04:31:37;;;;;;;16.15;8.77;;;;;;;3.71;74.90;101356.34;1084819;54;20604;-76
2022/01/22 04:32:39;;;;;;;16.98;10.30;;;;;;;3.61;75.43;101352.41;1085855;54;20069;-75
2022/01/22 04:33:43;;;;;;;17.23;9.98;;;;;;;3.65;75.47;101359.28;1085217;54;20042;-77
2022/01/22 04:34:45;;;;;;;15.88;9.30;;;;;;;3.68;75.14;101361.81;1085000;54;20668;-76
2022/01/22 04:35:49;;;;;;;21.20;10.05;;;;;;;3.60;75.55;101362.13;1085225;54;20078;-76
2022/01/22 04:36:53;;;;;;;15.90;8.98;;;;;;;3.77;75.03;101366.69;1085170;54;20088;-77
2022/01/22 04:37:55;;;;;;;15.50;10.10;;;;;;;3.87;74.80;101362.66;1084968;54;20073;-76
2022/01/22 04:38:59;;;;;;;12.75;8.35;;;;;;;3.93;74.74;101368.63;1084982;54;20046;-77
2022/01/22 04:40:04;;;;;;;14.02;9.05;;;;;;;3.81;74.73;101367.41;1084985;54;20667;-76
2022/01/22 04:41:09;;;;;;;16.95;9.13;;;;;;;3.78;75.12;101363.09;1084708;54;20038;-76
2022/01/22 04:42:10;;;;;;;13.45;8.48;;;;;;;3.91;74.78;101366.06;1085455;46;20127;-77
2022/01/22 04:43:15;;;;;;;18.05;9.50;;;;;;;3.70;74.96;101367.84;1084803;54;20026;-78
2022/01/22 04:44:16;;;;;;;14.10;9.63;;;;;;;3.75;74.94;101365.88;1085023;54;21012;-77
2022/01/22 04:45:28;;;;;;;15.95;9.95;;;;;;;3.72;75.01;101368.66;1085090;54;20090;-76
2022/01/22 04:46:52;;;;;;;18.95;9.23;;;;;;;3.69;75.19;101371.44;1085498;54;20031;-77
2022/01/22 04:48:11;;;;;;;18.33;10.55;;;;;;;3.49;76.12;101370.53;1084895;54;20150;-77
2022/01/22 04:52:30;;;;;;;17.10;11.10;;;;;;;3.50;76.14;101366.09;1085111;54;20049;-78
2022/01/22 04:55:55;;;;;;;14.30;9.18;;;;;;;3.75;75.32;101371.19;1085166;54;20041;-76
2022/01/22 04:56:56;;;;;;;17.20;9.63;;;;;;;3.70;75.30;101368.75;1084889;54;20065;-76
2022/01/22 04:58:03;;;;;;;15.05;10.05;;;;;;;3.70;75.35;101373.16;1084988;54;20034;-76
2022/01/22 04:59:04;;;;;;;13.80;9.20;;;;;;;3.81;75.19;101373.53;1085190;54;20042;-78
2022/01/22 05:00:12;;;;;;;16.92;9.40;;;;;;;3.74;75.04;101367.66;1084948;54;20042;-75
2022/01/22 05:01:13;;;;;;;13.23;9.05;;;;;;;3.84;75.12;101372.53;1085177;54;20038;-77
2022/01/22 05:02:18;;;;;;;16.02;9.23;;;;;;;3.72;75.03;101368.66;1086182;54;20045;-76
2022/01/22 05:03:20;;;;;;;17.70;10.10;;;;;;;3.79;75.39;101371.91;1085740;54;20042;-76
2022/01/22 05:04:24;;;;;;;12.75;8.57;;;;;;;3.88;74.86;101364.38;1085623;54;20038;-77
2022/01/22 05:05:26;;;;;;;11.98;8.05;;;;;;;3.90;74.78;101373.13;1086015;54;20039;-77
2022/01/22 05:06:30;;;;;;;16.25;9.57;;;;;;;3.70;75.12;101367.84;1086093;54;20061;-77
2022/01/22 05:07:32;;;;;;;15.18;9.85;;;;;;;3.70;75.52;101363.44;1085776;54;20042;-76
2022/01/22 05:08:37;;;;;;;17.55;9.70;;;;;;;3.64;75.19;101370.78;1086390;54;20038;-76
2022/01/22 05:09:39;;;;;;;15.52;9.75;;;;;;;3.73;75.48;101360.63;1087540;39;20449;-77
2022/01/22 05:10:43;;;;;;;17.42;9.95;;;;;;;3.59;75.68;101360.41;1086038;54;20042;-76
2022/01/22 05:11:48;;;;;;;15.02;9.27;;;;;;;3.55;75.95;101367.63;1086512;54;20042;-77
2022/01/22 05:12:53;;;;;;;18.20;9.77;;;;;;;3.69;75.74;101360.84;1086029;54;20471;-76
2022/01/22 05:13:55;;;;;;;15.35;9.88;;;;;;;3.81;75.06;101359.47;1085514;54;20058;-77
2022/01/22 05:15:00;;;;;;;13.30;9.07;;;;;;;3.83;74.71;101358.47;1085879;54;20038;-76
2022/01/22 05:16:02;;;;;;;16.33;10.00;;;;;;;3.90;74.84;101357.25;1085753;54;20038;-77
2022/01/22 05:17:08;;;;;;;17.65;9.20;;;;;;;3.84;75.03;101362.81;1087365;39;20513;-76
2022/01/22 05:18:10;;;;;;;19.35;10.43;;;;;;;3.75;75.29;101360.59;1085360;54;20047;-76
2022/01/22 05:19:20;;;;;;;15.60;9.63;;;;;;;3.91;74.85;101371.34;1085748;54;20042;-77
2022/01/22 05:20:26;;;;;;;16.65;8.75;;;;;;;3.79;74.99;101367.44;1085552;54;20632;-78
2022/01/22 05:21:33;;;;;;;15.80;9.90;;;;;;;3.87;74.67;101361.81;1086445;54;20131;-77
2022/01/22 05:22:54;;;;;;;17.77;9.38;;;;;;;3.85;74.76;101359.25;1085735;54;20081;-78
2022/01/22 05:24:02;;;;;;;16.70;9.50;;;;;;;3.90;74.66;101367.84;1086170;46;20038;-77
2022/01/22 05:25:08;;;;;;;13.57;8.70;;;;;;;3.89;74.55;101365.25;1086150;54;20063;-76
2022/01/22 05:26:29;;;;;;;16.38;9.80;;;;;;;3.78;74.83;101368.38;1084723;54;20046;-76
2022/01/22 05:27:52;;;;;;;17.25;9.73;;;;;;;3.58;75.33;101367.50;1085430;54;20038;-77
2022/01/22 05:29:21;;;;;;;17.75;9.23;;;;;;;3.71;75.25;101377.50;1085700;54;20042;-77
2022/01/22 05:32:18;;;;;;;17.08;9.45;;;;;;;3.69;75.29;101368.78;1085435;39;20420;-76
2022/01/22 05:33:34;;;;;;;12.55;9.40;;;;;;;3.55;75.68;101370.28;1086197;54;20075;-77
2022/01/22 05:37:13;;;;;;;17.83;9.27;;;;;;;3.53;75.83;101380.03;1085621;54;20046;-76
2022/01/22 05:38:14;;;;;;;17.70;9.90;;;;;;;3.52;75.69;101370.38;1086534;46;20063;-76
2022/01/22 05:39:21;;;;;;;23.35;10.65;;;;;;;3.47;76.02;101375.03;1085777;54;20038;-76
2022/01/22 05:40:24;;;;;;;17.23;10.07;;;;;;;3.66;75.69;101375.06;1085861;54;20039;-77
2022/01/22 05:41:31;;;;;;;15.05;9.50;;;;;;;3.68;75.53;101377.69;1086175;54;20066;-78
2022/01/22 05:42:36;;;;;;;19.33;10.75;;;;;;;3.39;75.94;101380.63;1087119;54;20042;-75
2022/01/22 05:43:40;;;;;;;17.20;10.90;;;;;;;3.51;76.15;101384.53;1087832;47;20382;-76
2022/01/22 05:44:42;;;;;;;16.92;10.45;;;;;;;3.58;75.97;101393.94;1087784;54;20011;-76
2022/01/22 05:45:46;;;;;;;18.20;10.25;;;;;;;3.57;75.72;101380.75;1087906;46;20027;-76
2022/01/22 05:46:50;;;;;;;19.13;10.38;;;;;;;3.58;75.86;101391.31;1088041;39;20263;-75
2022/01/22 05:47:54;;;;;;;20.55;11.23;;;;;;;3.52;76.01;101382.75;1087116;47;20049;-77
2022/01/22 05:48:56;;;;;;;18.95;10.20;;;;;;;3.43;76.25;101390.19;1087194;54;20027;-75
2022/01/22 05:50:05;;;;;;;19.88;11.15;;;;;;;3.47;76.19;101390.91;1086559;54;20038;-77
2022/01/22 05:51:07;;;;;;;18.10;10.65;;;;;;;3.48;76.07;101395.25;1086204;54;20676;-76
2022/01/22 05:52:14;;;;;;;13.95;10.20;;;;;;;3.54;76.12;101389.69;1085925;54;20039;-76
2022/01/22 05:53:32;;;;;;;18.73;10.48;;;;;;;3.56;75.90;101392.28;1085980;54;20039;-76
2022/01/22 05:59:47;;;;;;;22.23;11.23;;;;;;;3.44;76.39;101388.38;1085667;54;20087;-77
2022/01/22 06:00:49;;;;;;;15.68;10.63;;;;;;;3.42;76.37;101392.88;1085739;54;20049;-76
2022/01/22 06:01:53;;;;;;;17.45;9.93;;;;;;;3.56;76.17;101385.22;1085214;54;20050;-75
2022/01/22 06:02:55;;;;;;;18.15;10.68;;;;;;;3.58;76.10;101388.66;1086231;39;20449;-77
2022/01/22 06:04:00;;;;;;;16.35;10.70;;;;;;;3.56;76.04;101392.28;1085680;54;20046;-77
2022/01/22 06:05:04;;;;;;;16.42;10.85;;;;;;;3.58;75.97;101393.06;1085898;54;20049;-75
2022/01/22 06:06:07;;;;;;;16.83;10.77;;;;;;;3.42;76.72;101392.88;1086063;54;20065;-78